Time;durP1;ratioP1;P1;durP2;ratioP2;P2;SDS_P1;SDS_P2;PMS_P1;PMS_P2;Temp;Humidity;BMP_temperature;BMP_pressure;BME280_temperature;BME280_humidity;BME280_pressure;Samples;Min_cycle;Max_cycle;Signal;HPM_P1;HPM_P2
2023/11/23 00:00:39;;;;;;;15.02;9.23;;;;;;;1.90;100.00;101575.47;5051785;28;20048;-70
2023/11/23 00:03:08;;;;;;;15.65;9.27;;;;;;;1.91;100.00;101587.69;5058380;28;20099;-70
2023/11/23 00:05:38;;;;;;;14.18;9.10;;;;;;;1.93;100.00;101572.91;5062111;28;20115;-69
2023/11/23 00:08:08;;;;;;;13.50;9.23;;;;;;;1.87;100.00;101574.63;5079781;28;20056;-69
2023/11/23 00:10:36;;;;;;;15.63;9.70;;;;;;;1.80;100.00;101567.59;5060806;28;20450;-69
2023/11/23 00:13:04;;;;;;;15.20;9.32;;;;;;;1.75;100.00;101557.09;5059938;28;20068;-69
2023/11/23 00:15:33;;;;;;;18.55;10.60;;;;;;;1.65;100.00;101530.06;5079925;28;20048;-70
2023/11/23 00:18:04;;;;;;;16.80;9.82;;;;;;;1.84;100.00;101546.72;5059172;28;20174;-69
2023/11/23 00:20:32;;;;;;;16.38;9.02;;;;;;;1.88;100.00;101540.69;5064449;28;20064;-71
2023/11/23 00:23:04;;;;;;;15.45;8.73;;;;;;;1.80;100.00;101555.41;5061340;28;20037;-71
2023/11/23 00:25:32;;;;;;;13.40;8.50;;;;;;;1.67;100.00;101545.72;5067475;28;20052;-73
2023/11/23 00:28:00;;;;;;;14.05;9.55;;;;;;;1.71;100.00;101551.00;5064670;28;20466;-68
2023/11/23 00:30:29;;;;;;;14.82;9.02;;;;;;;1.55;100.00;101541.28;5059287;28;20497;-68
2023/11/23 00:32:57;;;;;;;13.98;9.35;;;;;;;1.53;100.00;101548.25;5078629;28;20044;-70
2023/11/23 00:35:25;;;;;;;15.75;9.43;;;;;;;1.49;100.00;101537.75;5065787;28;20141;-70
2023/11/23 00:37:53;;;;;;;14.77;8.73;;;;;;;1.60;100.00;101550.00;5069816;28;20045;-70
2023/11/23 00:40:24;;;;;;;14.05;9.23;;;;;;;1.64;100.00;101549.19;5061056;28;20068;-69
2023/11/23 00:42:52;;;;;;;16.77;9.77;;;;;;;1.68;100.00;101545.75;5063169;28;20489;-71
2023/11/23 00:45:20;;;;;;;17.50;10.50;;;;;;;1.59;100.00;101537.81;5062942;28;20072;-69
2023/11/23 00:47:49;;;;;;;15.07;9.85;;;;;;;1.63;100.00;101549.19;5095442;28;20051;-69
2023/11/23 00:50:17;;;;;;;16.48;10.23;;;;;;;1.61;100.00;101543.94;5061558;28;20048;-69
2023/11/23 00:52:46;;;;;;;15.43;9.95;;;;;;;1.58;100.00;101538.69;5075976;28;20098;-70
2023/11/23 00:55:14;;;;;;;16.80;10.38;;;;;;;1.61;100.00;101532.63;5065266;28;20087;-69
2023/11/23 00:57:43;;;;;;;18.90;11.05;;;;;;;1.62;100.00;101530.03;5063505;28;20052;-69
2023/11/23 01:00:13;;;;;;;15.63;10.95;;;;;;;1.63;100.00;101516.09;5059061;28;20415;-68
2023/11/23 01:02:46;;;;;;;15.43;11.00;;;;;;;1.64;100.00;101517.84;5063148;28;20051;-70
2023/11/23 01:05:18;;;;;;;21.15;11.45;;;;;;;1.57;100.00;101534.34;5054967;28;20082;-70
2023/11/23 01:07:47;;;;;;;16.20;10.38;;;;;;;1.44;100.00;101532.47;5073935;28;20044;-70
2023/11/23 01:10:15;;;;;;;18.92;11.40;;;;;;;1.32;100.00;101535.00;5066282;28;20037;-69
2023/11/23 01:12:45;;;;;;;19.02;10.88;;;;;;;1.10;100.00;101517.41;5054942;28;20080;-69
2023/11/23 01:15:13;;;;;;;16.23;11.30;;;;;;;1.10;100.00;101533.06;5070489;28;20044;-69
2023/11/23 01:17:41;;;;;;;16.30;10.90;;;;;;;0.99;100.00;101517.28;5068320;28;20141;-71
2023/11/23 01:20:10;;;;;;;16.75;10.38;;;;;;;0.98;100.00;101524.22;5065101;28;20051;-69
2023/11/23 01:22:39;;;;;;;19.40;11.65;;;;;;;0.98;100.00;101539.88;5069143;28;20463;-70
2023/11/23 01:25:09;;;;;;;18.42;11.20;;;;;;;0.93;100.00;101539.00;5068212;28;20673;-69
2023/11/23 01:27:42;;;;;;;15.02;11.15;;;;;;;1.06;100.00;101537.38;5066991;28;20048;-69
2023/11/23 01:30:14;;;;;;;17.83;11.02;;;;;;;1.12;100.00;101536.53;5053201;28;20135;-69
2023/11/23 01:32:42;;;;;;;19.25;10.88;;;;;;;1.14;100.00;101529.59;5058881;28;20052;-69
2023/11/23 01:35:10;;;;;;;20.02;11.02;;;;;;;1.14;100.00;101534.81;5066516;28;20530;-69
2023/11/23 01:37:38;;;;;;;15.43;11.00;;;;;;;1.22;100.00;101528.84;5066764;28;20065;-69
2023/11/23 01:40:11;;;;;;;15.25;10.95;;;;;;;1.31;100.00;101522.81;5071257;28;20150;-69
2023/11/23 01:42:44;;;;;;;16.42;10.63;;;;;;;1.34;100.00;101502.84;5077835;28;20052;-70
2023/11/23 01:45:16;;;;;;;17.50;11.13;;;;;;;1.39;100.00;101510.72;5074953;28;20123;-69
2023/11/23 01:47:46;;;;;;;16.10;10.77;;;;;;;1.39;100.00;101497.66;5100423;28;20079;-70
2023/11/23 01:50:18;;;;;;;18.33;10.48;;;;;;;1.45;100.00;101505.53;5068411;28;20048;-70
2023/11/23 01:52:48;;;;;;;15.20;10.45;;;;;;;1.55;100.00;101509.97;5078014;28;20144;-70
2023/11/23 01:55:16;;;;;;;14.23;9.75;;;;;;;1.61;100.00;101510.00;5063643;28;20535;-70
2023/11/23 01:57:49;;;;;;;18.17;10.32;;;;;;;1.50;100.00;101488.16;5053567;28;20071;-70
2023/11/23 02:00:19;;;;;;;17.10;10.07;;;;;;;1.52;100.00;101491.66;5071331;28;20743;-69
2023/11/23 02:02:48;;;;;;;15.88;9.68;;;;;;;1.49;100.00;101478.59;5081145;28;20653;-70
2023/11/23 02:05:17;;;;;;;15.93;9.40;;;;;;;1.44;100.00;101493.34;5065250;28;20520;-69
2023/11/23 02:07:45;;;;;;;15.05;9.57;;;;;;;1.28;100.00;101489.72;5070229;28;20149;-68
2023/11/23 02:10:14;;;;;;;16.92;10.25;;;;;;;1.17;100.00;101485.28;5071050;28;20060;-69
2023/11/23 02:12:43;;;;;;;15.55;10.23;;;;;;;1.03;100.00;101472.13;5069407;28;20056;-69
2023/11/23 02:15:13;;;;;;;14.35;9.32;;;;;;;1.10;100.00;101475.69;5067426;28;20526;-68
2023/11/23 02:17:43;;;;;;;15.18;10.10;;;;;;;1.23;100.00;101498.41;5100760;28;20053;-69
2023/11/23 02:20:12;;;;;;;16.77;9.63;;;;;;;1.23;100.00;101501.88;5069657;28;20045;-70
2023/11/23 02:22:40;;;;;;;15.88;9.70;;;;;;;1.22;100.00;101502.75;5046664;28;20048;-69
2023/11/23 02:25:10;;;;;;;16.25;9.90;;;;;;;1.21;100.00;101505.34;5071414;28;20056;-70
2023/11/23 02:27:38;;;;;;;16.63;10.05;;;;;;;1.21;100.00;101503.59;5069092;28;20048;-68
2023/11/23 02:30:08;;;;;;;13.98;10.02;;;;;;;1.21;100.00;101490.56;5064959;28;20472;-70
2023/11/23 02:32:36;;;;;;;14.75;9.88;;;;;;;1.18;100.00;101485.31;5065931;28;20028;-69
2023/11/23 02:35:05;;;;;;;14.05;9.40;;;;;;;1.22;100.00;101492.31;5069174;28;20074;-68
2023/11/23 02:37:35;;;;;;;14.70;9.30;;;;;;;1.38;100.00;101477.66;5069661;28;20041;-68
2023/11/23 02:40:05;;;;;;;15.45;9.10;;;;;;;1.62;100.00;101476.94;5069766;28;20044;-70
2023/11/23 02:42:35;;;;;;;15.55;9.38;;;;;;;1.70;100.00;101463.09;5061138;28;20081;-69
2023/11/23 02:45:04;;;;;;;15.60;9.52;;;;;;;1.76;100.00;101476.16;5069478;28;20040;-70
2023/11/23 02:47:32;;;;;;;15.63;9.07;;;;;;;1.77;100.00;101469.19;5069688;28;20044;-68
2023/11/23 02:50:00;;;;;;;13.95;9.23;;;;;;;1.73;100.00;101468.28;5066165;28;20144;-69
2023/11/23 02:52:28;;;;;;;15.40;9.27;;;;;;;1.66;100.00;101466.53;5059420;28;20149;-68
2023/11/23 02:54:56;;;;;;;13.75;9.23;;;;;;;1.61;100.00;101464.75;5083253;28;20044;-71
2023/11/23 02:57:25;;;;;;;14.45;9.70;;;;;;;1.61;100.00;101464.75;5098835;27;20044;-70
2023/11/23 02:59:56;;;;;;;14.07;8.43;;;;;;;1.56;100.00;101456.03;5067211;28;20049;-70
2023/11/23 03:02:24;;;;;;;15.40;9.43;;;;;;;1.55;100.00;101459.50;5057926;28;20075;-70
2023/11/23 03:04:54;;;;;;;15.20;9.48;;;;;;;1.46;100.00;101475.06;5048658;28;20381;-68
2023/11/23 03:07:24;;;;;;;15.05;9.15;;;;;;;1.41;100.00;101469.84;5075289;28;20041;-69
2023/11/23 03:09:54;;;;;;;14.95;9.15;;;;;;;1.37;100.00;101471.56;5052672;28;20037;-70
2023/11/23 03:12:23;;;;;;;16.42;9.32;;;;;;;1.37;100.00;101473.28;5044639;28;20047;-70
2023/11/23 03:14:51;;;;;;;13.63;9.35;;;;;;;1.23;100.00;101469.69;5065108;28;20122;-69
2023/11/23 03:17:21;;;;;;;14.68;9.27;;;;;;;1.17;100.00;101472.25;5046574;28;20072;-68
2023/11/23 03:19:49;;;;;;;14.83;8.70;;;;;;;1.20;100.00;101467.94;5066689;28;20398;-71
2023/11/23 03:22:17;;;;;;;13.35;9.32;;;;;;;1.24;100.00;101451.44;5087828;28;20487;-69
2023/11/23 03:24:49;;;;;;;13.57;9.27;;;;;;;1.39;100.00;101448.09;5064089;28;20121;-69
2023/11/23 03:27:21;;;;;;;13.20;8.95;;;;;;;1.53;100.00;101445.56;5081930;28;20215;-69
2023/11/23 03:29:50;;;;;;;15.65;9.35;;;;;;;1.47;100.00;101441.16;5066258;28;20137;-69
2023/11/23 03:32:18;;;;;;;14.52;9.27;;;;;;;1.43;100.00;101442.00;5061347;28;20512;-69
2023/11/23 03:34:48;;;;;;;15.65;9.60;;;;;;;1.36;100.00;101424.56;5069593;28;20550;-69
2023/11/23 03:37:17;;;;;;;12.63;8.93;;;;;;;1.43;100.00;101428.94;5089688;28;20045;-69
2023/11/23 03:39:45;;;;;;;17.65;9.40;;;;;;;1.46;100.00;101438.53;5065900;28;20066;-69
2023/11/23 03:42:14;;;;;;;14.40;9.48;;;;;;;1.22;100.00;101415.78;5043450;28;20052;-69
2023/11/23 03:44:43;;;;;;;14.45;9.23;;;;;;;1.26;100.00;101433.19;5064766;28;20056;-70
2023/11/23 03:47:16;;;;;;;15.40;9.60;;;;;;;1.28;100.00;101439.28;5067087;28;20437;-70
2023/11/23 03:49:45;;;;;;;15.10;9.60;;;;;;;1.25;100.00;101447.09;5065763;28;20889;-68
2023/11/23 03:52:14;;;;;;;15.02;8.77;;;;;;;1.30;100.00;101442.78;5061971;28;20106;-69
2023/11/23 03:54:42;;;;;;;15.43;9.55;;;;;;;1.20;100.00;101426.19;5069397;28;20105;-69
2023/11/23 03:57:13;;;;;;;14.73;8.80;;;;;;;1.36;100.00;101440.22;5084684;28;20390;-69
2023/11/23 03:59:45;;;;;;;16.63;9.27;;;;;;;1.40;100.00;101431.56;5069593;28;20052;-69
2023/11/23 04:02:13;;;;;;;16.10;9.70;;;;;;;1.36;100.00;101442.84;5085183;28;20524;-69
2023/11/23 04:04:43;;;;;;;14.73;9.20;;;;;;;1.29;100.00;101425.38;5088695;28;20405;-70
2023/11/23 04:07:11;;;;;;;18.23;9.50;;;;;;;1.42;100.00;101431.56;5082568;28;20051;-70
2023/11/23 04:09:43;;;;;;;13.50;8.80;;;;;;;1.53;100.00;101438.59;5069896;28;20074;-70
2023/11/23 04:12:12;;;;;;;13.70;9.02;;;;;;;1.50;100.00;101441.19;5065659;28;20044;-69
2023/11/23 04:14:40;;;;;;;16.00;9.48;;;;;;;1.48;100.00;101431.59;5066258;28;20048;-69
2023/11/23 04:17:11;;;;;;;15.48;8.98;;;;;;;1.55;100.00;101418.59;5085852;28;20045;-69
2023/11/23 04:19:41;;;;;;;13.27;8.60;;;;;;;1.63;100.00;101431.69;5068482;28;20056;-70
2023/11/23 04:22:11;;;;;;;15.85;9.57;;;;;;;1.55;100.00;101430.78;5062825;28;20180;-71
2023/11/23 04:24:43;;;;;;;13.52;9.63;;;;;;;1.51;100.00;101422.06;5066836;28;20043;-70
2023/11/23 04:27:12;;;;;;;13.67;9.17;;;;;;;1.51;100.00;101419.44;5046926;28;20044;-68
2023/11/23 04:29:42;;;;;;;14.73;9.48;;;;;;;1.52;100.00;101423.81;5067383;28;20037;-69
2023/11/23 04:32:12;;;;;;;14.10;9.48;;;;;;;1.64;100.00;101421.25;5077617;28;20058;-70
2023/11/23 04:34:40;;;;;;;15.35;9.98;;;;;;;1.77;100.00;101404.78;5065537;28;20059;-70
2023/11/23 04:37:08;;;;;;;15.40;9.75;;;;;;;1.86;100.00;101405.72;5088170;28;20451;-68
2023/11/23 04:39:37;;;;;;;16.42;9.90;;;;;;;1.89;100.00;101397.91;5085125;28;20051;-70
2023/11/23 04:42:09;;;;;;;13.77;9.30;;;;;;;1.84;100.00;101410.06;5062509;28;20048;-69
2023/11/23 04:44:38;;;;;;;13.20;9.55;;;;;;;1.73;100.00;101408.25;5067101;28;20880;-69
2023/11/23 04:47:09;;;;;;;15.85;10.60;;;;;;;1.77;100.00;101399.56;5102892;28;20477;-69
2023/11/23 04:49:37;;;;;;;16.00;9.50;;;;;;;1.73;100.00;101395.19;5070204;28;20143;-70
2023/11/23 04:52:05;;;;;;;15.57;9.77;;;;;;;1.79;100.00;101402.19;5085019;28;20052;-69
2023/11/23 04:54:34;;;;;;;14.70;9.88;;;;;;;1.80;100.00;101396.09;5048455;28;20117;-69
2023/11/23 04:57:03;;;;;;;15.23;10.05;;;;;;;1.90;100.00;101400.47;5071292;28;20056;-69
2023/11/23 04:59:32;;;;;;;18.48;11.38;;;;;;;1.82;100.00;101422.22;5055224;28;20045;-69
2023/11/23 05:02:01;;;;;;;14.57;9.88;;;;;;;1.77;100.00;101406.53;5067200;28;20047;-69
2023/11/23 05:04:29;;;;;;;16.08;10.57;;;;;;;1.83;100.00;101384.78;5064474;28;20540;-70
2023/11/23 05:06:57;;;;;;;19.83;10.75;;;;;;;1.91;100.00;101391.78;5071110;28;20047;-71
2023/11/23 05:09:27;;;;;;;14.93;10.30;;;;;;;1.95;100.00;101382.22;5086104;28;20451;-70
2023/11/23 05:11:55;;;;;;;15.65;10.18;;;;;;;1.85;100.00;101397.00;5064307;28;20064;-69
2023/11/23 05:14:29;;;;;;;;;;;;;;;1.77;100.00;101391.72;5067999;28;20075;-69
2023/11/23 05:16:58;;;;;;;;;;;;;;;1.86;100.00;101390.03;5071801;28;19920;-69
2023/11/23 05:19:27;;;;;;;17.02;11.23;;;;;;;1.83;100.00;101396.13;5072660;28;19924;-69
2023/11/23 05:22:09;;;;;;;17.50;10.23;;;;;;;1.87;100.00;101392.66;5069834;28;20048;-69
2023/11/23 05:24:38;;;;;;;16.75;10.50;;;;;;;1.93;100.00;101382.22;5064027;28;20048;-69
2023/11/23 05:27:07;;;;;;;18.63;10.40;;;;;;;1.97;100.00;101383.13;5070778;28;20113;-69
2023/11/23 05:29:36;;;;;;;17.17;10.52;;;;;;;2.05;100.00;101384.00;5050674;28;20049;-69
2023/11/23 05:32:06;;;;;;;17.90;10.63;;;;;;;2.01;100.00;101375.31;5052071;28;20409;-70
2023/11/23 05:34:39;;;;;;;17.20;10.43;;;;;;;2.13;100.00;101397.09;5061901;28;20318;-70
2023/11/23 05:37:07;;;;;;;17.67;10.23;;;;;;;2.06;100.00;101389.22;5067122;28;20507;-70
2023/11/23 05:39:35;;;;;;;16.52;10.27;;;;;;;2.04;100.00;101392.72;5067159;28;20056;-69
2023/11/23 05:42:08;;;;;;;15.75;10.15;;;;;;;2.11;100.00;101394.47;5068288;28;20098;-68
2023/11/23 05:44:40;;;;;;;18.17;10.45;;;;;;;2.04;100.00;101377.06;5065394;28;20080;-71
2023/11/23 05:47:10;;;;;;;17.10;10.43;;;;;;;2.15;100.00;101374.47;5065521;28;20117;-69
2023/11/23 05:49:39;;;;;;;16.30;10.85;;;;;;;2.18;100.00;101375.34;5060288;28;20048;-69
2023/11/23 05:52:08;;;;;;;17.00;10.32;;;;;;;2.30;100.00;101388.44;5068210;28;20103;-69
2023/11/23 05:54:37;;;;;;;16.90;11.13;;;;;;;2.20;100.00;101384.09;5064226;28;20493;-70
2023/11/23 05:57:05;;;;;;;16.63;10.63;;;;;;;2.23;100.00;101391.91;5066957;28;20488;-69
2023/11/23 05:59:34;;;;;;;17.60;10.20;;;;;;;2.29;100.00;101380.59;5065183;28;20056;-69
2023/11/23 06:02:07;;;;;;;20.13;11.07;;;;;;;2.22;100.00;101369.25;5052362;28;20063;-67
2023/11/23 06:04:45;;;;;;;15.50;9.95;;;;;;;1.94;100.00;101350.00;5064248;28;20557;-70
2023/11/23 06:07:14;;;;;;;17.55;10.05;;;;;;;1.99;100.00;101368.31;5083965;28;20045;-70
2023/11/23 06:09:44;;;;;;;16.83;10.77;;;;;;;1.92;100.00;101353.47;5082701;28;21289;-70
2023/11/23 06:12:13;;;;;;;16.88;10.40;;;;;;;2.03;100.00;101370.97;5066305;28;20052;-69
2023/11/23 06:14:43;;;;;;;18.40;10.60;;;;;;;2.11;100.00;101374.44;5065049;28;20497;-71
2023/11/23 06:17:14;;;;;;;16.15;10.55;;;;;;;2.19;100.00;101373.63;5067682;28;20139;-69
2023/11/23 06:19:52;;;;;;;16.67;9.88;;;;;;;2.19;100.00;101361.44;5073377;28;20054;-70
2023/11/23 06:23:00;;;;;;;17.15;9.85;;;;;;;2.04;100.00;101354.41;5067891;28;20060;-70
2023/11/23 06:25:32;;;;;;;15.93;9.70;;;;;;;2.10;100.00;101345.72;5066864;28;20063;-70
2023/11/23 06:28:02;;;;;;;16.10;9.65;;;;;;;2.23;100.00;101346.59;5072436;28;20044;-69
2023/11/23 06:30:44;;;;;;;18.40;9.68;;;;;;;2.21;100.00;101351.81;5090194;28;20535;-70
2023/11/23 06:33:13;;;;;;;13.15;9.07;;;;;;;2.11;100.00;101343.09;5075648;28;20048;-69
2023/11/23 06:35:46;;;;;;;14.20;9.70;;;;;;;2.20;100.00;101318.75;5093468;28;20052;-69
2023/11/23 06:38:14;;;;;;;13.30;9.20;;;;;;;2.20;100.00;101313.53;5075814;28;20139;-69
2023/11/23 06:40:43;;;;;;;16.88;9.75;;;;;;;2.11;100.00;101329.16;5056900;28;20074;-69
2023/11/23 06:43:15;;;;;;;16.17;10.60;;;;;;;2.07;100.00;101356.13;5048701;28;20071;-69
2023/11/23 06:45:43;;;;;;;16.92;10.43;;;;;;;1.96;100.00;101356.13;5071593;28;20481;-69
2023/11/23 06:48:11;;;;;;;14.75;9.45;;;;;;;1.99;100.00;101347.44;5082539;28;20117;-69
2023/11/23 06:50:45;;;;;;;17.40;10.27;;;;;;;2.02;100.00;101352.66;5086546;28;20467;-68
2023/11/23 06:53:18;;;;;;;15.15;9.63;;;;;;;2.08;100.00;101358.75;5065963;28;20458;-69
2023/11/23 06:55:50;;;;;;;16.05;9.93;;;;;;;2.09;100.00;101370.09;5101869;28;20497;-71
2023/11/23 06:58:19;;;;;;;16.60;9.70;;;;;;;2.04;100.00;101366.59;5080766;28;20469;-69
2023/11/23 07:00:48;;;;;;;15.75;10.30;;;;;;;2.05;100.00;101369.19;5050696;28;20179;-69
2023/11/23 07:03:21;;;;;;;15.88;10.00;;;;;;;2.16;100.00;101366.63;5049105;28;20483;-69
2023/11/23 07:05:51;;;;;;;14.88;9.43;;;;;;;2.19;100.00;101363.16;5102262;28;20114;-68
2023/11/23 07:08:19;;;;;;;15.98;9.82;;;;;;;2.10;100.00;101374.44;5065348;28;20052;-70
2023/11/23 07:10:47;;;;;;;16.67;10.18;;;;;;;1.99;100.00;101363.09;5068892;28;20048;-69
2023/11/23 07:13:16;;;;;;;16.40;9.45;;;;;;;1.99;100.00;101366.59;5061370;28;20044;-70
2023/11/23 07:15:46;;;;;;;18.85;9.73;;;;;;;2.00;100.00;101360.50;5065389;28;20039;-69
2023/11/23 07:18:16;;;;;;;18.73;10.20;;;;;;;2.09;100.00;101360.50;5064546;28;20052;-69
2023/11/23 07:20:48;;;;;;;14.10;9.52;;;;;;;2.19;100.00;101368.41;5067251;28;20062;-69
2023/11/23 07:23:23;;;;;;;13.70;9.57;;;;;;;2.17;100.00;101362.28;5061419;28;20447;-70
2023/11/23 07:25:52;;;;;;;15.23;9.43;;;;;;;2.14;100.00;101357.91;5066106;28;20045;-70
2023/11/23 07:28:24;;;;;;;14.95;9.88;;;;;;;2.20;100.00;101336.16;5063758;28;20049;-71
2023/11/23 07:30:57;;;;;;;15.63;9.45;;;;;;;2.29;100.00;101342.28;5085347;28;20048;-70
2023/11/23 07:33:29;;;;;;;13.30;8.98;;;;;;;2.29;100.00;101342.28;5069625;28;20079;-68
2023/11/23 07:35:58;;;;;;;13.50;9.40;;;;;;;2.23;100.00;101336.16;5071043;28;20040;-69
2023/11/23 07:38:28;;;;;;;17.85;10.23;;;;;;;2.29;100.00;101351.84;5065715;28;20045;-70
2023/11/23 07:40:57;;;;;;;16.95;9.70;;;;;;;2.31;100.00;101353.59;5074562;28;20044;-70
2023/11/23 07:43:25;;;;;;;14.60;8.93;;;;;;;2.30;100.00;101333.56;5060359;28;20055;-69
2023/11/23 07:45:53;;;;;;;16.55;10.40;;;;;;;2.32;100.00;101350.13;5061916;28;20131;-70
2023/11/23 07:48:22;;;;;;;15.57;9.13;;;;;;;2.25;100.00;101337.91;5068791;28;20063;-71
2023/11/23 07:50:51;;;;;;;16.35;10.75;;;;;;;2.22;100.00;101329.19;5068184;28;20404;-69
2023/11/23 07:53:19;;;;;;;15.18;9.82;;;;;;;2.28;100.00;101327.47;5057961;28;20628;-68
2023/11/23 07:55:51;;;;;;;15.02;9.45;;;;;;;2.39;100.00;101338.78;5066071;28;20055;-68
2023/11/23 07:58:20;;;;;;;22.43;10.37;;;;;;;2.46;100.00;101332.72;5071555;28;20110;-70
2023/11/23 08:00:49;;;;;;;14.90;10.55;;;;;;;2.53;100.00;101330.09;5069933;28;20101;-69
2023/11/23 08:03:17;;;;;;;16.25;9.68;;;;;;;2.65;100.00;101314.44;5064417;28;20260;-73
2023/11/23 08:05:47;;;;;;;18.20;10.13;;;;;;;2.68;100.00;101307.44;5063241;28;20039;-71
2023/11/23 08:08:15;;;;;;;18.10;10.65;;;;;;;2.63;100.00;101308.31;5069359;28;20802;-69
2023/11/23 08:10:46;;;;;;;18.50;9.80;;;;;;;2.64;100.00;101312.69;5063954;28;20037;-69
2023/11/23 08:13:16;;;;;;;13.93;9.20;;;;;;;2.77;100.00;101317.91;5065822;28;20259;-71
2023/11/23 08:15:46;;;;;;;16.13;9.95;;;;;;;2.82;100.00;101323.16;5062811;28;21318;-69
2023/11/23 08:18:18;;;;;;;;;;;;;;;2.86;100.00;101319.63;5091891;28;20437;-70
2023/11/23 08:20:48;;;;;;;15.38;10.30;;;;;;;2.75;100.00;101316.16;5063390;28;20399;-70
2023/11/23 08:23:16;;;;;;;17.63;10.43;;;;;;;2.63;100.00;101308.31;5065143;28;20687;-71
2023/11/23 08:25:45;;;;;;;15.10;9.95;;;;;;;2.73;100.00;101315.28;5064095;28;20051;-71
2023/11/23 08:28:13;;;;;;;16.92;9.90;;;;;;;2.69;100.00;101311.78;5071420;28;20084;-71
2023/11/23 08:30:48;;;;;;;16.85;10.20;;;;;;;2.70;100.00;101324.00;5071758;28;20382;-70
2023/11/23 08:33:17;;;;;;;24.40;11.88;;;;;;;2.75;100.00;101321.38;5063121;28;20044;-69
2023/11/23 08:35:45;;;;;;;17.85;10.25;;;;;;;2.83;100.00;101314.44;5077880;28;20049;-69
2023/11/23 08:38:14;;;;;;;19.70;10.50;;;;;;;2.83;100.00;101315.25;5070031;28;21279;-68
2023/11/23 08:40:45;;;;;;;15.82;10.10;;;;;;;2.96;100.00;101312.66;5073796;28;20067;-70
2023/11/23 08:43:14;;;;;;;17.17;9.77;;;;;;;3.08;100.00;101310.88;5068362;28;20071;-69
2023/11/23 08:45:44;;;;;;;18.92;10.30;;;;;;;3.10;100.00;101306.53;5066048;28;20086;-72
2023/11/23 08:48:12;;;;;;;19.85;10.65;;;;;;;3.15;100.00;101317.84;5068420;28;20049;-69
2023/11/23 08:50:40;;;;;;;21.98;10.98;;;;;;;3.14;100.00;101329.22;5070100;28;20047;-68
2023/11/23 08:53:08;;;;;;;17.10;10.77;;;;;;;3.13;100.00;101326.59;5069302;28;20049;-70
2023/11/23 08:55:36;;;;;;;19.60;10.90;;;;;;;3.09;100.00;101311.75;5078340;28;20040;-69
2023/11/23 08:58:05;;;;;;;15.95;9.90;;;;;;;3.25;100.00;101309.97;5075291;28;20048;-69
2023/11/23 09:00:33;;;;;;;17.65;10.60;;;;;;;3.35;100.00;101306.47;5065507;28;20037;-69
2023/11/23 09:03:10;;;;;;;17.02;10.45;;;;;;;3.40;100.00;101299.47;5044398;28;20071;-68
2023/11/23 09:05:38;;;;;;;17.75;10.82;;;;;;;3.40;100.00;101296.84;5057189;28;20151;-69
2023/11/23 09:08:07;;;;;;;18.67;11.18;;;;;;;3.45;100.00;101295.09;5063242;28;20051;-69
2023/11/23 09:10:35;;;;;;;17.88;10.55;;;;;;;3.60;100.00;101296.78;5078992;28;20056;-69
2023/11/23 09:13:03;;;;;;;16.75;10.93;;;;;;;3.70;100.00;101290.63;5068561;28;20040;-70
2023/11/23 09:15:31;;;;;;;17.70;10.20;;;;;;;3.84;100.00;101291.41;5056840;28;20336;-69
2023/11/23 09:18:00;;;;;;;17.60;9.43;;;;;;;3.81;100.00;101286.19;5062639;28;20452;-68
2023/11/23 09:20:30;;;;;;;15.00;9.80;;;;;;;3.88;100.00;101294.03;5052188;28;20047;-68
2023/11/23 09:22:58;;;;;;;15.77;9.85;;;;;;;4.10;100.00;101294.75;5092680;28;20049;-67
2023/11/23 09:25:28;;;;;;;21.75;9.98;;;;;;;4.19;100.00;101289.47;5061203;28;20795;-67
2023/11/23 09:27:58;;;;;;;17.73;10.05;;;;;;;4.31;100.00;101274.53;5067325;28;20036;-67
2023/11/23 09:30:28;;;;;;;16.40;10.10;;;;;;;4.19;100.00;101283.34;5061646;28;20064;-68
2023/11/23 09:32:56;;;;;;;17.00;10.07;;;;;;;4.21;100.00;101284.22;5048323;28;20044;-68
2023/11/23 09:35:25;;;;;;;20.38;9.75;;;;;;;4.38;100.00;101282.34;5059240;28;20052;-68
2023/11/23 09:37:54;;;;;;;15.73;10.05;;;;;;;4.45;100.00;101270.91;5064484;28;20079;-67
2023/11/23 09:40:23;;;;;;;16.63;10.10;;;;;;;4.59;100.00;101279.53;5052202;28;20525;-68
2023/11/23 09:42:51;;;;;;;18.88;10.02;;;;;;;4.70;100.00;101273.34;5076936;28;20052;-67
2023/11/23 09:45:22;;;;;;;17.90;9.52;;;;;;;4.57;100.00;101268.19;5044401;28;20392;-67
2023/11/23 09:47:57;;;;;;;15.32;9.65;;;;;;;4.35;100.00;101273.63;5053948;28;20048;-69
2023/11/23 09:50:27;;;;;;;;;;;;;;;4.48;100.00;101291.88;5071850;28;20055;-69
2023/11/23 09:53:01;;;;;;;16.13;10.57;;;;;;;4.52;100.00;101290.97;5069511;28;20030;-68
2023/11/23 09:55:30;;;;;;;15.20;9.52;;;;;;;4.66;100.00;101283.00;5065549;28;20167;-68
2023/11/23 09:57:58;;;;;;;16.77;9.68;;;;;;;4.83;100.00;101267.09;5055744;28;20059;-68
2023/11/23 10:00:27;;;;;;;16.77;9.73;;;;;;;4.94;100.00;101255.59;5071205;28;20075;-68
2023/11/23 10:02:57;;;;;;;17.90;10.20;;;;;;;5.07;100.00;101258.94;5070340;28;20048;-68
2023/11/23 10:05:26;;;;;;;16.50;10.95;;;;;;;5.05;100.00;101246.72;5046899;28;20047;-68
2023/11/23 10:07:54;;;;;;;19.58;10.90;;;;;;;4.91;100.00;101236.38;5068679;28;20052;-67
2023/11/23 10:10:26;;;;;;;16.80;10.30;;;;;;;4.84;100.00;101239.97;5071604;28;20413;-67
2023/11/23 10:12:55;;;;;;;20.45;10.70;;;;;;;4.81;100.00;101235.63;5086412;28;20044;-68
2023/11/23 10:15:25;;;;;;;17.85;10.85;;;;;;;4.84;100.00;101232.97;5067011;28;20055;-68
2023/11/23 10:17:53;;;;;;;16.25;10.82;;;;;;;4.89;100.00;101246.00;5053144;28;20048;-70
2023/11/23 10:20:23;;;;;;;19.27;10.68;;;;;;;4.90;100.00;101230.25;5073937;28;20032;-68
2023/11/23 10:22:53;;;;;;;22.63;12.13;;;;;;;5.03;100.00;101233.66;5072740;28;20040;-68
2023/11/23 10:25:31;;;;;;;17.75;10.55;;;;;;;5.17;100.00;101223.84;5062486;28;20040;-69
2023/11/23 10:28:00;;;;;;;16.42;10.77;;;;;;;5.34;100.00;101220.16;5072331;28;20464;-69
2023/11/23 10:30:29;;;;;;;15.30;10.15;;;;;;;5.44;100.00;101217.38;5073020;28;20417;-69
2023/11/23 10:33:01;;;;;;;18.60;10.60;;;;;;;5.41;100.00;101216.56;5070768;28;20037;-70
2023/11/23 10:35:36;;;;;;;19.60;11.48;;;;;;;5.33;100.00;101206.16;5062269;28;20478;-69
2023/11/23 10:38:06;;;;;;;17.92;10.88;;;;;;;5.37;100.00;101196.47;5039014;28;20497;-69
2023/11/23 10:40:36;;;;;;;18.08;11.02;;;;;;;5.46;100.00;101198.97;5086972;28;20106;-68
2023/11/23 10:43:12;;;;;;;16.50;10.18;;;;;;;5.64;100.00;101189.09;5070159;28;20062;-68
2023/11/23 10:45:43;;;;;;;17.58;11.25;;;;;;;5.79;100.00;101188.00;5065013;28;20059;-68
2023/11/23 10:48:14;;;;;;;16.35;10.50;;;;;;;5.86;100.00;101194.03;5072551;28;20037;-68
2023/11/23 10:50:43;;;;;;;20.25;11.20;;;;;;;5.75;100.00;101178.41;5071162;28;20041;-68
2023/11/23 10:53:11;;;;;;;19.10;11.18;;;;;;;5.80;100.00;101173.97;5069352;28;20044;-69
2023/11/23 10:55:41;;;;;;;18.52;10.63;;;;;;;5.87;100.00;101151.06;5078540;28;20052;-68
2023/11/23 10:58:14;;;;;;;17.77;10.23;;;;;;;5.99;100.00;101146.53;5054175;28;20045;-69
2023/11/23 11:00:44;;;;;;;18.48;10.73;;;;;;;6.09;100.00;101133.25;5070536;28;20524;-68
2023/11/23 11:03:13;;;;;;;16.70;10.25;;;;;;;6.15;100.00;101125.22;5053385;28;20045;-69
2023/11/23 11:05:46;;;;;;;17.58;10.70;;;;;;;6.15;100.00;101112.94;5056817;28;20044;-68
2023/11/23 11:08:18;;;;;;;16.15;10.95;;;;;;;6.16;100.00;101117.31;5068072;28;20306;-70
2023/11/23 11:10:50;;;;;;;16.15;10.40;;;;;;;6.20;100.00;101105.84;5070750;28;20032;-68
2023/11/23 11:13:22;;;;;;;17.27;10.43;;;;;;;6.25;100.00;101096.13;5070009;28;20106;-69
2023/11/23 11:15:52;;;;;;;16.10;10.90;;;;;;;6.29;100.00;101092.56;5060772;28;21565;-69
2023/11/23 11:18:24;;;;;;;21.10;10.77;;;;;;;6.33;100.00;101099.47;5051153;28;20415;-68
2023/11/23 11:21:09;;;;;;;18.42;10.82;;;;;;;6.25;100.00;101109.28;5084922;28;20044;-70
2023/11/23 11:23:40;;;;;;;16.38;10.68;;;;;;;6.20;100.00;101102.34;5071584;28;20394;-69
2023/11/23 11:26:14;;;;;;;19.38;11.88;;;;;;;6.24;100.00;101091.75;5062984;28;20048;-69